Terminal Aerodrome Forecast
Issued by NWS

Home | Current Version | Previous Version | Text Only | Print | Product List | Glossary On
Versions: 1 2 3 4 5 6 7 8 9 10 11 12 13 14 15 16 17 18 19 20 21 22 23 24 25 26 27 28 29 30 31 32 33 34 35 36
000
FTUS45 KGJT 100539
TAFTEX
TAF
KTEX 100539Z 1006/1106 16005KT P6SM SCT150
     FM101300 15010KT P6SM SCT150
     FM101700 16004KT P6SM -SN BKN060 OVC120
     FM101900 24008KT P6SM -SN BKN050 OVC100
     FM110100 19007KT P6SM -SN OVC035=

USA.gov is the U.S. government's official web portal to all federal, state and local government web resources and services.